sensor_id;sensor_type;location;lat;lon;timestamp;P1;durP1;ratioP1;P2;durP2;ratioP2
33696;SDS011;20031;43.416;23.232;2023-05-07T00:00:17;9.88;;;4.78;;
33696;SDS011;20031;43.416;23.232;2023-05-07T00:02:44;9.88;;;4.95;;
33696;SDS011;20031;43.416;23.232;2023-05-07T00:05:10;12.80;;;5.03;;
33696;SDS011;20031;43.416;23.232;2023-05-07T00:07:36;11.20;;;4.70;;
33696;SDS011;20031;43.416;23.232;2023-05-07T00:10:02;7.57;;;4.72;;
33696;SDS011;20031;43.416;23.232;2023-05-07T00:12:28;8.25;;;5.20;;
33696;SDS011;20031;43.416;23.232;2023-05-07T00:14:56;10.43;;;4.38;;
33696;SDS011;20031;43.416;23.232;2023-05-07T00:17:22;8.95;;;4.55;;
33696;SDS011;20031;43.416;23.232;2023-05-07T00:19:48;6.97;;;4.90;;
33696;SDS011;20031;43.416;23.232;2023-05-07T00:22:13;10.20;;;4.85;;
33696;SDS011;20031;43.416;23.232;2023-05-07T00:24:39;9.40;;;4.65;;
33696;SDS011;20031;43.416;23.232;2023-05-07T00:27:04;10.20;;;4.88;;
33696;SDS011;20031;43.416;23.232;2023-05-07T00:29:30;8.05;;;4.15;;
33696;SDS011;20031;43.416;23.232;2023-05-07T00:31:55;8.43;;;4.78;;
33696;SDS011;20031;43.416;23.232;2023-05-07T00:34:21;7.40;;;4.95;;
33696;SDS011;20031;43.416;23.232;2023-05-07T00:36:47;9.65;;;4.55;;
33696;SDS011;20031;43.416;23.232;2023-05-07T00:39:12;9.85;;;4.70;;
33696;SDS011;20031;43.416;23.232;2023-05-07T00:41:38;8.27;;;4.93;;
33696;SDS011;20031;43.416;23.232;2023-05-07T00:44:03;10.38;;;4.35;;
33696;SDS011;20031;43.416;23.232;2023-05-07T00:46:29;8.30;;;4.50;;
33696;SDS011;20031;43.416;23.232;2023-05-07T00:48:55;10.90;;;4.50;;
33696;SDS011;20031;43.416;23.232;2023-05-07T00:51:21;8.35;;;4.40;;
33696;SDS011;20031;43.416;23.232;2023-05-07T00:53:48;7.55;;;4.10;;
33696;SDS011;20031;43.416;23.232;2023-05-07T00:56:13;5.95;;;4.32;;
33696;SDS011;20031;43.416;23.232;2023-05-07T00:58:40;7.50;;;3.78;;
33696;SDS011;20031;43.416;23.232;2023-05-07T01:01:05;5.10;;;3.70;;
33696;SDS011;20031;43.416;23.232;2023-05-07T01:03:31;9.02;;;3.90;;
33696;SDS011;20031;43.416;23.232;2023-05-07T01:05:57;8.70;;;3.55;;
33696;SDS011;20031;43.416;23.232;2023-05-07T01:08:24;4.85;;;3.50;;
33696;SDS011;20031;43.416;23.232;2023-05-07T01:10:51;5.30;;;3.80;;
33696;SDS011;20031;43.416;23.232;2023-05-07T01:13:18;4.82;;;3.47;;
33696;SDS011;20031;43.416;23.232;2023-05-07T01:15:44;5.68;;;3.60;;
33696;SDS011;20031;43.416;23.232;2023-05-07T01:18:10;7.65;;;3.83;;
33696;SDS011;20031;43.416;23.232;2023-05-07T01:20:35;6.07;;;3.80;;
33696;SDS011;20031;43.416;23.232;2023-05-07T01:23:01;6.90;;;3.25;;
33696;SDS011;20031;43.416;23.232;2023-05-07T01:25:28;7.60;;;3.50;;
33696;SDS011;20031;43.416;23.232;2023-05-07T01:27:54;5.82;;;3.25;;
33696;SDS011;20031;43.416;23.232;2023-05-07T01:30:20;7.63;;;3.70;;
33696;SDS011;20031;43.416;23.232;2023-05-07T01:32:51;5.97;;;3.63;;
33696;SDS011;20031;43.416;23.232;2023-05-07T01:35:24;6.65;;;3.85;;
33696;SDS011;20031;43.416;23.232;2023-05-07T01:37:54;7.72;;;4.13;;
33696;SDS011;20031;43.416;23.232;2023-05-07T01:40:20;10.80;;;4.80;;
33696;SDS011;20031;43.416;23.232;2023-05-07T01:42:46;7.85;;;4.60;;
33696;SDS011;20031;43.416;23.232;2023-05-07T01:45:13;10.50;;;4.78;;
33696;SDS011;20031;43.416;23.232;2023-05-07T01:47:38;13.40;;;4.80;;
33696;SDS011;20031;43.416;23.232;2023-05-07T01:50:07;8.15;;;4.63;;
33696;SDS011;20031;43.416;23.232;2023-05-07T01:52:35;13.35;;;4.40;;
33696;SDS011;20031;43.416;23.232;2023-05-07T01:55:02;14.45;;;5.07;;
33696;SDS011;20031;43.416;23.232;2023-05-07T01:57:28;9.15;;;4.57;;
33696;SDS011;20031;43.416;23.232;2023-05-07T01:59:53;13.18;;;4.45;;
33696;SDS011;20031;43.416;23.232;2023-05-07T02:02:19;8.73;;;4.50;;
33696;SDS011;20031;43.416;23.232;2023-05-07T02:04:44;8.77;;;4.53;;
33696;SDS011;20031;43.416;23.232;2023-05-07T02:07:09;8.52;;;3.75;;
33696;SDS011;20031;43.416;23.232;2023-05-07T02:09:35;9.52;;;4.18;;
33696;SDS011;20031;43.416;23.232;2023-05-07T02:12:00;9.05;;;3.80;;
33696;SDS011;20031;43.416;23.232;2023-05-07T02:14:26;8.77;;;3.67;;
33696;SDS011;20031;43.416;23.232;2023-05-07T02:16:51;11.68;;;3.50;;
33696;SDS011;20031;43.416;23.232;2023-05-07T02:19:17;5.22;;;2.92;;
33696;SDS011;20031;43.416;23.232;2023-05-07T02:21:43;6.82;;;2.80;;
33696;SDS011;20031;43.416;23.232;2023-05-07T02:24:08;4.85;;;2.90;;
33696;SDS011;20031;43.416;23.232;2023-05-07T02:26:34;5.15;;;3.15;;
33696;SDS011;20031;43.416;23.232;2023-05-07T02:28:59;7.45;;;3.40;;
33696;SDS011;20031;43.416;23.232;2023-05-07T02:31:25;6.13;;;3.33;;
33696;SDS011;20031;43.416;23.232;2023-05-07T02:33:50;8.85;;;3.47;;
33696;SDS011;20031;43.416;23.232;2023-05-07T02:36:16;4.47;;;3.05;;
33696;SDS011;20031;43.416;23.232;2023-05-07T02:38:41;5.53;;;3.30;;
33696;SDS011;20031;43.416;23.232;2023-05-07T02:41:06;8.55;;;3.30;;
33696;SDS011;20031;43.416;23.232;2023-05-07T02:43:32;6.03;;;3.15;;
33696;SDS011;20031;43.416;23.232;2023-05-07T02:46:01;8.82;;;3.00;;
33696;SDS011;20031;43.416;23.232;2023-05-07T02:48:31;7.07;;;3.15;;
33696;SDS011;20031;43.416;23.232;2023-05-07T02:50:57;10.48;;;3.75;;
33696;SDS011;20031;43.416;23.232;2023-05-07T02:53:23;12.05;;;3.20;;
33696;SDS011;20031;43.416;23.232;2023-05-07T02:55:51;14.02;;;3.30;;
33696;SDS011;20031;43.416;23.232;2023-05-07T02:58:20;7.97;;;2.97;;
33696;SDS011;20031;43.416;23.232;2023-05-07T03:00:45;6.70;;;3.75;;
33696;SDS011;20031;43.416;23.232;2023-05-07T03:03:11;9.38;;;3.33;;
33696;SDS011;20031;43.416;23.232;2023-05-07T03:05:36;9.63;;;3.90;;
33696;SDS011;20031;43.416;23.232;2023-05-07T03:08:02;4.85;;;3.72;;
33696;SDS011;20031;43.416;23.232;2023-05-07T03:10:29;8.20;;;3.60;;
33696;SDS011;20031;43.416;23.232;2023-05-07T03:12:54;7.40;;;4.28;;
33696;SDS011;20031;43.416;23.232;2023-05-07T03:15:20;8.90;;;4.38;;
33696;SDS011;20031;43.416;23.232;2023-05-07T03:17:46;11.40;;;3.90;;
33696;SDS011;20031;43.416;23.232;2023-05-07T03:20:12;11.48;;;5.13;;
33696;SDS011;20031;43.416;23.232;2023-05-07T03:22:38;12.18;;;5.22;;
33696;SDS011;20031;43.416;23.232;2023-05-07T03:25:03;11.43;;;5.68;;
33696;SDS011;20031;43.416;23.232;2023-05-07T03:27:29;14.48;;;5.10;;
33696;SDS011;20031;43.416;23.232;2023-05-07T03:29:55;18.08;;;4.85;;
33696;SDS011;20031;43.416;23.232;2023-05-07T03:32:20;6.47;;;2.92;;
33696;SDS011;20031;43.416;23.232;2023-05-07T03:34:46;6.28;;;3.10;;
33696;SDS011;20031;43.416;23.232;2023-05-07T03:37:11;8.63;;;3.45;;
33696;SDS011;20031;43.416;23.232;2023-05-07T03:39:36;12.40;;;3.30;;
33696;SDS011;20031;43.416;23.232;2023-05-07T03:42:02;12.23;;;3.92;;
33696;SDS011;20031;43.416;23.232;2023-05-07T03:44:28;5.63;;;3.38;;
33696;SDS011;20031;43.416;23.232;2023-05-07T03:46:53;8.25;;;3.50;;
33696;SDS011;20031;43.416;23.232;2023-05-07T03:49:19;6.85;;;3.90;;
33696;SDS011;20031;43.416;23.232;2023-05-07T03:51:44;8.63;;;3.90;;
33696;SDS011;20031;43.416;23.232;2023-05-07T03:54:10;7.07;;;3.50;;
33696;SDS011;20031;43.416;23.232;2023-05-07T03:56:35;11.95;;;4.97;;
33696;SDS011;20031;43.416;23.232;2023-05-07T03:59:01;9.40;;;4.72;;
33696;SDS011;20031;43.416;23.232;2023-05-07T04:01:26;12.73;;;4.53;;
33696;SDS011;20031;43.416;23.232;2023-05-07T04:03:52;7.68;;;4.40;;
33696;SDS011;20031;43.416;23.232;2023-05-07T04:06:17;14.07;;;4.55;;
33696;SDS011;20031;43.416;23.232;2023-05-07T04:08:43;9.98;;;4.32;;
33696;SDS011;20031;43.416;23.232;2023-05-07T04:11:08;7.40;;;4.30;;
33696;SDS011;20031;43.416;23.232;2023-05-07T04:13:34;5.65;;;4.43;;
33696;SDS011;20031;43.416;23.232;2023-05-07T04:16:01;9.43;;;4.70;;
33696;SDS011;20031;43.416;23.232;2023-05-07T04:18:27;12.07;;;4.25;;
33696;SDS011;20031;43.416;23.232;2023-05-07T04:20:53;7.60;;;4.10;;
33696;SDS011;20031;43.416;23.232;2023-05-07T04:23:19;10.10;;;4.10;;
33696;SDS011;20031;43.416;23.232;2023-05-07T04:25:45;8.20;;;4.40;;
33696;SDS011;20031;43.416;23.232;2023-05-07T04:28:11;6.55;;;4.28;;
33696;SDS011;20031;43.416;23.232;2023-05-07T04:30:37;6.75;;;4.28;;
33696;SDS011;20031;43.416;23.232;2023-05-07T04:33:03;10.38;;;4.75;;
33696;SDS011;20031;43.416;23.232;2023-05-07T04:35:28;7.35;;;4.15;;
33696;SDS011;20031;43.416;23.232;2023-05-07T04:37:54;9.60;;;4.50;;
33696;SDS011;20031;43.416;23.232;2023-05-07T04:40:20;10.30;;;4.30;;
33696;SDS011;20031;43.416;23.232;2023-05-07T04:42:45;7.30;;;4.00;;
33696;SDS011;20031;43.416;23.232;2023-05-07T04:45:11;6.25;;;4.10;;
33696;SDS011;20031;43.416;23.232;2023-05-07T04:47:37;11.05;;;4.38;;
33696;SDS011;20031;43.416;23.232;2023-05-07T04:50:03;7.35;;;4.32;;
33696;SDS011;20031;43.416;23.232;2023-05-07T04:52:29;12.50;;;4.70;;
33696;SDS011;20031;43.416;23.232;2023-05-07T04:54:56;10.00;;;4.70;;
33696;SDS011;20031;43.416;23.232;2023-05-07T04:57:21;13.18;;;5.40;;
33696;SDS011;20031;43.416;23.232;2023-05-07T04:59:46;11.40;;;5.18;;
33696;SDS011;20031;43.416;23.232;2023-05-07T05:02:12;7.93;;;4.88;;
33696;SDS011;20031;43.416;23.232;2023-05-07T05:04:37;6.63;;;4.97;;
33696;SDS011;20031;43.416;23.232;2023-05-07T05:07:03;9.52;;;5.88;;
33696;SDS011;20031;43.416;23.232;2023-05-07T05:09:29;12.23;;;6.25;;
33696;SDS011;20031;43.416;23.232;2023-05-07T05:12:16;8.55;;;5.65;;
33696;SDS011;20031;43.416;23.232;2023-05-07T05:14:42;10.93;;;5.85;;
33696;SDS011;20031;43.416;23.232;2023-05-07T05:17:07;8.80;;;5.15;;
33696;SDS011;20031;43.416;23.232;2023-05-07T05:19:33;6.78;;;4.75;;
33696;SDS011;20031;43.416;23.232;2023-05-07T05:21:58;7.53;;;4.72;;
33696;SDS011;20031;43.416;23.232;2023-05-07T05:24:26;13.70;;;5.10;;
33696;SDS011;20031;43.416;23.232;2023-05-07T05:26:53;8.85;;;4.60;;
33696;SDS011;20031;43.416;23.232;2023-05-07T05:29:18;9.75;;;5.20;;
33696;SDS011;20031;43.416;23.232;2023-05-07T05:31:44;7.60;;;5.13;;
33696;SDS011;20031;43.416;23.232;2023-05-07T05:34:09;9.38;;;5.38;;
33696;SDS011;20031;43.416;23.232;2023-05-07T05:36:35;9.73;;;4.82;;
33696;SDS011;20031;43.416;23.232;2023-05-07T05:39:00;11.15;;;4.68;;
33696;SDS011;20031;43.416;23.232;2023-05-07T05:41:25;8.80;;;4.68;;
33696;SDS011;20031;43.416;23.232;2023-05-07T05:43:51;10.98;;;4.97;;
33696;SDS011;20031;43.416;23.232;2023-05-07T05:46:16;6.63;;;4.68;;
33696;SDS011;20031;43.416;23.232;2023-05-07T05:48:42;10.95;;;5.47;;
33696;SDS011;20031;43.416;23.232;2023-05-07T05:51:07;8.52;;;4.70;;
33696;SDS011;20031;43.416;23.232;2023-05-07T05:53:33;9.73;;;5.07;;
33696;SDS011;20031;43.416;23.232;2023-05-07T05:55:58;8.63;;;5.00;;
33696;SDS011;20031;43.416;23.232;2023-05-07T05:58:24;6.57;;;4.95;;
33696;SDS011;20031;43.416;23.232;2023-05-07T06:00:49;8.82;;;4.72;;
33696;SDS011;20031;43.416;23.232;2023-05-07T06:03:17;5.72;;;4.38;;
33696;SDS011;20031;43.416;23.232;2023-05-07T06:05:42;10.55;;;4.90;;
33696;SDS011;20031;43.416;23.232;2023-05-07T06:08:08;8.40;;;4.95;;
33696;SDS011;20031;43.416;23.232;2023-05-07T06:10:35;10.15;;;4.45;;
33696;SDS011;20031;43.416;23.232;2023-05-07T06:13:01;15.60;;;4.50;;
33696;SDS011;20031;43.416;23.232;2023-05-07T06:15:27;8.13;;;4.50;;
33696;SDS011;20031;43.416;23.232;2023-05-07T06:17:52;8.43;;;4.53;;
33696;SDS011;20031;43.416;23.232;2023-05-07T06:20:17;8.18;;;4.70;;
33696;SDS011;20031;43.416;23.232;2023-05-07T06:22:43;10.23;;;4.95;;
33696;SDS011;20031;43.416;23.232;2023-05-07T06:25:08;6.57;;;4.75;;
33696;SDS011;20031;43.416;23.232;2023-05-07T06:27:34;8.27;;;4.65;;
33696;SDS011;20031;43.416;23.232;2023-05-07T06:29:59;9.88;;;4.45;;
33696;SDS011;20031;43.416;23.232;2023-05-07T06:32:25;6.45;;;4.38;;
33696;SDS011;20031;43.416;23.232;2023-05-07T06:34:51;8.13;;;4.45;;
33696;SDS011;20031;43.416;23.232;2023-05-07T06:37:16;7.05;;;4.53;;
33696;SDS011;20031;43.416;23.232;2023-05-07T06:39:41;8.88;;;4.30;;
33696;SDS011;20031;43.416;23.232;2023-05-07T06:42:07;8.00;;;4.63;;
33696;SDS011;20031;43.416;23.232;2023-05-07T06:44:32;9.10;;;4.50;;
33696;SDS011;20031;43.416;23.232;2023-05-07T06:46:58;8.60;;;4.47;;
33696;SDS011;20031;43.416;23.232;2023-05-07T06:49:23;13.23;;;4.88;;
33696;SDS011;20031;43.416;23.232;2023-05-07T06:51:49;8.38;;;4.00;;
33696;SDS011;20031;43.416;23.232;2023-05-07T06:54:14;13.15;;;4.30;;
33696;SDS011;20031;43.416;23.232;2023-05-07T06:56:40;10.77;;;3.90;;
33696;SDS011;20031;43.416;23.232;2023-05-07T06:59:05;9.48;;;4.22;;
33696;SDS011;20031;43.416;23.232;2023-05-07T07:01:31;7.68;;;4.00;;
33696;SDS011;20031;43.416;23.232;2023-05-07T07:03:57;9.18;;;3.90;;
33696;SDS011;20031;43.416;23.232;2023-05-07T07:06:22;6.78;;;3.75;;
33696;SDS011;20031;43.416;23.232;2023-05-07T07:08:48;11.48;;;3.90;;
33696;SDS011;20031;43.416;23.232;2023-05-07T07:11:13;16.90;;;3.97;;
33696;SDS011;20031;43.416;23.232;2023-05-07T07:13:39;11.23;;;4.00;;
33696;SDS011;20031;43.416;23.232;2023-05-07T07:16:05;7.28;;;3.75;;
33696;SDS011;20031;43.416;23.232;2023-05-07T07:18:30;7.88;;;3.60;;
33696;SDS011;20031;43.416;23.232;2023-05-07T07:20:56;9.70;;;3.78;;
33696;SDS011;20031;43.416;23.232;2023-05-07T07:23:21;6.85;;;3.42;;
33696;SDS011;20031;43.416;23.232;2023-05-07T07:25:47;12.15;;;3.70;;
33696;SDS011;20031;43.416;23.232;2023-05-07T07:28:12;8.32;;;3.90;;
33696;SDS011;20031;43.416;23.232;2023-05-07T07:30:38;10.65;;;3.63;;
33696;SDS011;20031;43.416;23.232;2023-05-07T07:33:04;11.30;;;3.97;;
33696;SDS011;20031;43.416;23.232;2023-05-07T07:35:30;10.38;;;3.60;;
33696;SDS011;20031;43.416;23.232;2023-05-07T07:37:58;7.65;;;3.40;;
33696;SDS011;20031;43.416;23.232;2023-05-07T07:40:24;11.38;;;3.78;;
33696;SDS011;20031;43.416;23.232;2023-05-07T07:42:50;8.90;;;3.78;;
33696;SDS011;20031;43.416;23.232;2023-05-07T07:45:16;7.13;;;3.65;;
33696;SDS011;20031;43.416;23.232;2023-05-07T07:47:41;6.38;;;3.88;;
33696;SDS011;20031;43.416;23.232;2023-05-07T07:50:07;7.80;;;4.30;;
33696;SDS011;20031;43.416;23.232;2023-05-07T07:52:33;8.27;;;4.15;;
33696;SDS011;20031;43.416;23.232;2023-05-07T07:54:59;8.43;;;3.85;;
33696;SDS011;20031;43.416;23.232;2023-05-07T07:57:24;11.10;;;3.90;;
33696;SDS011;20031;43.416;23.232;2023-05-07T07:59:50;8.88;;;4.13;;
33696;SDS011;20031;43.416;23.232;2023-05-07T08:02:16;8.35;;;4.20;;
33696;SDS011;20031;43.416;23.232;2023-05-07T08:04:42;11.70;;;4.22;;
33696;SDS011;20031;43.416;23.232;2023-05-07T08:07:08;11.05;;;3.90;;
33696;SDS011;20031;43.416;23.232;2023-05-07T08:09:34;9.18;;;3.75;;
33696;SDS011;20031;43.416;23.232;2023-05-07T08:12:00;8.38;;;3.50;;
33696;SDS011;20031;43.416;23.232;2023-05-07T08:14:27;5.60;;;3.88;;
33696;SDS011;20031;43.416;23.232;2023-05-07T08:16:53;8.60;;;3.88;;
33696;SDS011;20031;43.416;23.232;2023-05-07T08:19:19;11.95;;;3.75;;
33696;SDS011;20031;43.416;23.232;2023-05-07T08:21:45;9.38;;;4.18;;
33696;SDS011;20031;43.416;23.232;2023-05-07T08:24:12;10.63;;;3.92;;
33696;SDS011;20031;43.416;23.232;2023-05-07T08:26:41;11.45;;;3.92;;
33696;SDS011;20031;43.416;23.232;2023-05-07T08:29:07;8.25;;;4.00;;
33696;SDS011;20031;43.416;23.232;2023-05-07T08:31:34;7.22;;;4.00;;
33696;SDS011;20031;43.416;23.232;2023-05-07T08:34:00;8.98;;;4.03;;
33696;SDS011;20031;43.416;23.232;2023-05-07T08:36:26;11.80;;;4.05;;
33696;SDS011;20031;43.416;23.232;2023-05-07T08:38:52;9.65;;;4.40;;
33696;SDS011;20031;43.416;23.232;2023-05-07T08:41:17;9.43;;;4.20;;
33696;SDS011;20031;43.416;23.232;2023-05-07T08:43:45;6.75;;;3.80;;
33696;SDS011;20031;43.416;23.232;2023-05-07T08:46:19;10.73;;;4.03;;
33696;SDS011;20031;43.416;23.232;2023-05-07T08:48:48;7.05;;;3.80;;
33696;SDS011;20031;43.416;23.232;2023-05-07T08:51:18;7.18;;;4.03;;
33696;SDS011;20031;43.416;23.232;2023-05-07T08:53:46;8.68;;;4.07;;
33696;SDS011;20031;43.416;23.232;2023-05-07T08:56:16;10.45;;;3.88;;
33696;SDS011;20031;43.416;23.232;2023-05-07T08:58:47;5.35;;;3.50;;
33696;SDS011;20031;43.416;23.232;2023-05-07T09:01:13;14.05;;;3.50;;
33696;SDS011;20031;43.416;23.232;2023-05-07T09:03:40;8.02;;;3.60;;
33696;SDS011;20031;43.416;23.232;2023-05-07T09:06:09;10.43;;;3.10;;
33696;SDS011;20031;43.416;23.232;2023-05-07T09:08:35;5.05;;;3.20;;
33696;SDS011;20031;43.416;23.232;2023-05-07T09:11:01;8.20;;;2.90;;
33696;SDS011;20031;43.416;23.232;2023-05-07T09:13:27;10.00;;;3.30;;
33696;SDS011;20031;43.416;23.232;2023-05-07T09:15:53;8.82;;;3.15;;
33696;SDS011;20031;43.416;23.232;2023-05-07T09:18:18;9.00;;;3.38;;
33696;SDS011;20031;43.416;23.232;2023-05-07T09:20:44;10.05;;;3.60;;
33696;SDS011;20031;43.416;23.232;2023-05-07T09:23:10;6.32;;;2.95;;
33696;SDS011;20031;43.416;23.232;2023-05-07T09:25:35;9.50;;;3.10;;
33696;SDS011;20031;43.416;23.232;2023-05-07T09:28:02;7.03;;;3.28;;
33696;SDS011;20031;43.416;23.232;2023-05-07T09:30:29;6.03;;;3.53;;
33696;SDS011;20031;43.416;23.232;2023-05-07T09:32:58;9.15;;;3.08;;
33696;SDS011;20031;43.416;23.232;2023-05-07T09:35:25;7.30;;;3.45;;
33696;SDS011;20031;43.416;23.232;2023-05-07T09:37:55;8.32;;;3.70;;
33696;SDS011;20031;43.416;23.232;2023-05-07T09:40:23;10.18;;;3.15;;
33696;SDS011;20031;43.416;23.232;2023-05-07T09:42:51;9.45;;;3.47;;
33696;SDS011;20031;43.416;23.232;2023-05-07T09:45:29;11.10;;;3.17;;
33696;SDS011;20031;43.416;23.232;2023-05-07T09:47:57;7.22;;;3.20;;
33696;SDS011;20031;43.416;23.232;2023-05-07T09:50:26;5.45;;;3.00;;
33696;SDS011;20031;43.416;23.232;2023-05-07T09:52:56;8.02;;;3.20;;
33696;SDS011;20031;43.416;23.232;2023-05-07T09:55:22;9.05;;;3.00;;
33696;SDS011;20031;43.416;23.232;2023-05-07T09:57:50;13.18;;;2.95;;
33696;SDS011;20031;43.416;23.232;2023-05-07T10:00:18;4.78;;;2.88;;
33696;SDS011;20031;43.416;23.232;2023-05-07T10:02:45;5.70;;;3.00;;
33696;SDS011;20031;43.416;23.232;2023-05-07T10:05:14;4.45;;;2.97;;
33696;SDS011;20031;43.416;23.232;2023-05-07T10:07:40;10.32;;;3.08;;
33696;SDS011;20031;43.416;23.232;2023-05-07T10:10:06;7.22;;;2.90;;
33696;SDS011;20031;43.416;23.232;2023-05-07T10:12:32;7.68;;;2.83;;
33696;SDS011;20031;43.416;23.232;2023-05-07T10:15:04;12.45;;;2.50;;
33696;SDS011;20031;43.416;23.232;2023-05-07T10:17:31;7.45;;;2.55;;
33696;SDS011;20031;43.416;23.232;2023-05-07T10:19:57;4.30;;;2.65;;
33696;SDS011;20031;43.416;23.232;2023-05-07T10:22:23;6.30;;;2.70;;
33696;SDS011;20031;43.416;23.232;2023-05-07T10:24:52;7.07;;;2.45;;
33696;SDS011;20031;43.416;23.232;2023-05-07T10:27:21;10.88;;;2.75;;
33696;SDS011;20031;43.416;23.232;2023-05-07T10:34:53;4.55;;;2.50;;
33696;SDS011;20031;43.416;23.232;2023-05-07T10:37:20;7.50;;;2.80;;
33696;SDS011;20031;43.416;23.232;2023-05-07T10:39:47;6.40;;;2.92;;
33696;SDS011;20031;43.416;23.232;2023-05-07T10:42:14;5.95;;;2.50;;
33696;SDS011;20031;43.416;23.232;2023-05-07T10:44:40;5.43;;;2.80;;
33696;SDS011;20031;43.416;23.232;2023-05-07T10:49:34;6.72;;;2.40;;
33696;SDS011;20031;43.416;23.232;2023-05-07T10:52:18;4.10;;;2.40;;
33696;SDS011;20031;43.416;23.232;2023-05-07T10:54:45;8.10;;;2.35;;
33696;SDS011;20031;43.416;23.232;2023-05-07T10:59:56;6.43;;;2.53;;
33696;SDS011;20031;43.416;23.232;2023-05-07T11:02:21;6.22;;;2.17;;
33696;SDS011;20031;43.416;23.232;2023-05-07T11:05:18;4.18;;;2.20;;
33696;SDS011;20031;43.416;23.232;2023-05-07T11:07:56;5.45;;;2.70;;
33696;SDS011;20031;43.416;23.232;2023-05-07T11:13:14;9.50;;;2.65;;
33696;SDS011;20031;43.416;23.232;2023-05-07T11:15:44;3.85;;;2.20;;
33696;SDS011;20031;43.416;23.232;2023-05-07T11:18:11;8.13;;;2.55;;
33696;SDS011;20031;43.416;23.232;2023-05-07T11:26:02;5.07;;;2.45;;
33696;SDS011;20031;43.416;23.232;2023-05-07T11:28:38;9.38;;;2.42;;
33696;SDS011;20031;43.416;23.232;2023-05-07T11:31:07;4.47;;;2.08;;
33696;SDS011;20031;43.416;23.232;2023-05-07T11:33:34;7.70;;;2.53;;
33696;SDS011;20031;43.416;23.232;2023-05-07T11:36:00;7.05;;;2.25;;
33696;SDS011;20031;43.416;23.232;2023-05-07T11:38:28;8.55;;;2.40;;
33696;SDS011;20031;43.416;23.232;2023-05-07T11:40:55;6.60;;;2.42;;
33696;SDS011;20031;43.416;23.232;2023-05-07T11:43:21;7.47;;;2.35;;
33696;SDS011;20031;43.416;23.232;2023-05-07T11:45:47;3.15;;;2.15;;
33696;SDS011;20031;43.416;23.232;2023-05-07T11:48:14;6.80;;;2.08;;
33696;SDS011;20031;43.416;23.232;2023-05-07T11:50:53;6.07;;;2.20;;
33696;SDS011;20031;43.416;23.232;2023-05-07T11:53:26;5.13;;;1.92;;
33696;SDS011;20031;43.416;23.232;2023-05-07T11:55:55;4.00;;;2.60;;
33696;SDS011;20031;43.416;23.232;2023-05-07T11:58:21;5.40;;;2.38;;
33696;SDS011;20031;43.416;23.232;2023-05-07T12:00:51;10.65;;;2.72;;
33696;SDS011;20031;43.416;23.232;2023-05-07T12:03:18;3.97;;;2.30;;
33696;SDS011;20031;43.416;23.232;2023-05-07T12:05:44;6.07;;;2.28;;
33696;SDS011;20031;43.416;23.232;2023-05-07T12:08:28;8.68;;;2.45;;
33696;SDS011;20031;43.416;23.232;2023-05-07T12:10:54;9.40;;;2.40;;
33696;SDS011;20031;43.416;23.232;2023-05-07T12:13:20;4.78;;;2.35;;
33696;SDS011;20031;43.416;23.232;2023-05-07T12:15:50;9.05;;;2.25;;
33696;SDS011;20031;43.416;23.232;2023-05-07T12:18:16;5.22;;;2.45;;
33696;SDS011;20031;43.416;23.232;2023-05-07T12:20:42;6.72;;;2.22;;
33696;SDS011;20031;43.416;23.232;2023-05-07T12:23:08;6.85;;;2.38;;
33696;SDS011;20031;43.416;23.232;2023-05-07T12:25:34;7.55;;;2.50;;
33696;SDS011;20031;43.416;23.232;2023-05-07T12:28:01;17.90;;;8.75;;
33696;SDS011;20031;43.416;23.232;2023-05-07T12:30:30;25.83;;;12.18;;
33696;SDS011;20031;43.416;23.232;2023-05-07T12:33:04;12.50;;;2.88;;
33696;SDS011;20031;43.416;23.232;2023-05-07T12:35:30;9.63;;;2.80;;
33696;SDS011;20031;43.416;23.232;2023-05-07T12:37:57;4.82;;;2.25;;
33696;SDS011;20031;43.416;23.232;2023-05-07T12:40:34;5.30;;;2.40;;
33696;SDS011;20031;43.416;23.232;2023-05-07T12:43:24;7.35;;;2.28;;
33696;SDS011;20031;43.416;23.232;2023-05-07T12:45:54;5.97;;;2.50;;
33696;SDS011;20031;43.416;23.232;2023-05-07T12:48:21;9.68;;;2.55;;
33696;SDS011;20031;43.416;23.232;2023-05-07T12:50:50;8.40;;;2.45;;
33696;SDS011;20031;43.416;23.232;2023-05-07T12:53:19;9.93;;;2.50;;
33696;SDS011;20031;43.416;23.232;2023-05-07T12:55:47;5.80;;;2.35;;
33696;SDS011;20031;43.416;23.232;2023-05-07T12:58:18;4.03;;;2.47;;
33696;SDS011;20031;43.416;23.232;2023-05-07T13:00:54;8.23;;;2.28;;
33696;SDS011;20031;43.416;23.232;2023-05-07T13:03:24;5.05;;;2.25;;
33696;SDS011;20031;43.416;23.232;2023-05-07T13:05:52;11.02;;;2.35;;
33696;SDS011;20031;43.416;23.232;2023-05-07T13:08:28;3.38;;;2.30;;
33696;SDS011;20031;43.416;23.232;2023-05-07T13:10:55;35.42;;;2.70;;
33696;SDS011;20031;43.416;23.232;2023-05-07T13:13:21;9.02;;;2.35;;
33696;SDS011;20031;43.416;23.232;2023-05-07T13:15:47;7.25;;;2.10;;
33696;SDS011;20031;43.416;23.232;2023-05-07T13:18:13;4.18;;;2.13;;
33696;SDS011;20031;43.416;23.232;2023-05-07T13:20:38;3.45;;;2.10;;
33696;SDS011;20031;43.416;23.232;2023-05-07T13:23:04;15.20;;;2.58;;
33696;SDS011;20031;43.416;23.232;2023-05-07T13:25:30;5.95;;;2.45;;
33696;SDS011;20031;43.416;23.232;2023-05-07T13:27:59;5.63;;;2.22;;
33696;SDS011;20031;43.416;23.232;2023-05-07T13:30:25;7.40;;;2.45;;
33696;SDS011;20031;43.416;23.232;2023-05-07T13:32:50;11.90;;;2.42;;
33696;SDS011;20031;43.416;23.232;2023-05-07T13:35:17;5.47;;;2.25;;
33696;SDS011;20031;43.416;23.232;2023-05-07T13:37:42;9.68;;;2.58;;
33696;SDS011;20031;43.416;23.232;2023-05-07T13:40:08;9.23;;;2.55;;
33696;SDS011;20031;43.416;23.232;2023-05-07T13:42:34;4.85;;;1.92;;
33696;SDS011;20031;43.416;23.232;2023-05-07T13:44:59;6.72;;;2.20;;
33696;SDS011;20031;43.416;23.232;2023-05-07T13:47:25;7.90;;;2.33;;
33696;SDS011;20031;43.416;23.232;2023-05-07T13:49:51;6.13;;;2.03;;
33696;SDS011;20031;43.416;23.232;2023-05-07T13:52:16;10.75;;;2.17;;
33696;SDS011;20031;43.416;23.232;2023-05-07T13:54:42;9.02;;;2.40;;
33696;SDS011;20031;43.416;23.232;2023-05-07T13:57:08;8.50;;;1.92;;
33696;SDS011;20031;43.416;23.232;2023-05-07T13:59:33;10.35;;;2.22;;
33696;SDS011;20031;43.416;23.232;2023-05-07T14:01:59;15.65;;;2.65;;
33696;SDS011;20031;43.416;23.232;2023-05-07T14:04:25;10.35;;;2.25;;
33696;SDS011;20031;43.416;23.232;2023-05-07T14:06:50;16.58;;;2.58;;
33696;SDS011;20031;43.416;23.232;2023-05-07T14:09:16;2.97;;;1.95;;
33696;SDS011;20031;43.416;23.232;2023-05-07T14:11:41;8.25;;;2.30;;
33696;SDS011;20031;43.416;23.232;2023-05-07T14:14:07;4.78;;;1.90;;
33696;SDS011;20031;43.416;23.232;2023-05-07T14:16:32;4.85;;;2.00;;
33696;SDS011;20031;43.416;23.232;2023-05-07T14:18:58;6.20;;;2.13;;
33696;SDS011;20031;43.416;23.232;2023-05-07T14:21:23;3.55;;;1.90;;
33696;SDS011;20031;43.416;23.232;2023-05-07T14:23:48;4.18;;;1.90;;
33696;SDS011;20031;43.416;23.232;2023-05-07T14:26:14;5.68;;;1.98;;
33696;SDS011;20031;43.416;23.232;2023-05-07T14:28:39;6.60;;;2.38;;
33696;SDS011;20031;43.416;23.232;2023-05-07T14:31:06;5.63;;;2.00;;
33696;SDS011;20031;43.416;23.232;2023-05-07T14:33:31;5.10;;;2.03;;
33696;SDS011;20031;43.416;23.232;2023-05-07T14:35:57;5.50;;;1.98;;
33696;SDS011;20031;43.416;23.232;2023-05-07T14:38:22;4.07;;;1.92;;
33696;SDS011;20031;43.416;23.232;2023-05-07T14:40:48;4.65;;;2.20;;
33696;SDS011;20031;43.416;23.232;2023-05-07T14:43:13;6.63;;;1.98;;
33696;SDS011;20031;43.416;23.232;2023-05-07T14:45:39;8.45;;;2.10;;